Time;durP1;ratioP1;P1;durP2;ratioP2;P2;SDS_P1;SDS_P2;PMS_P1;PMS_P2;Temp;Humidity;BMP_temperature;BMP_pressure;BME280_temperature;BME280_humidity;BME280_pressure;Samples;Min_cycle;Max_cycle;Signal;HPM_P1;HPM_P2
2021/08/13 00:01:52;;;;;;;13.20;12.10;;;18.50;96.60;;;;;;5111148;28;20382;-91
2021/08/13 00:04:18;;;;;;;13.45;12.25;;;18.80;97.20;;;;;;5108203;28;20769;-91
2021/08/13 00:06:45;;;;;;;13.73;12.50;;;20.90;97.80;;;;;;5092652;28;20402;-92
2021/08/13 00:09:11;;;;;;;12.53;11.43;;;19.10;98.40;;;;;;5091881;28;20181;-91
2021/08/13 00:11:38;;;;;;;13.73;12.40;;;18.80;97.40;;;;;;5109186;28;20374;-92
2021/08/13 00:14:06;;;;;;;14.10;12.70;;;19.90;99.30;;;;;;5107397;28;20446;-91
2021/08/13 00:16:32;;;;;;;12.80;11.60;;;18.90;97.90;;;;;;5107545;28;20892;-91
2021/08/13 00:18:58;;;;;;;14.33;13.03;;;18.90;98.00;;;;;;5106273;28;20477;-92
2021/08/13 00:21:25;;;;;;;13.68;12.52;;;18.90;97.80;;;;;;5108884;28;20425;-92
2021/08/13 00:23:51;;;;;;;14.40;13.10;;;18.80;98.60;;;;;;5107833;28;20422;-92
2021/08/13 00:26:17;;;;;;;13.63;12.50;;;;;;;;;;5108134;28;20449;-92
2021/08/13 00:28:44;;;;;;;14.20;13.10;;;;;;;;;;5107859;28;20421;-92
2021/08/13 00:31:10;;;;;;;14.43;13.00;;;19.10;97.30;;;;;;5091355;28;20382;-91
2021/08/13 00:33:36;;;;;;;16.83;12.00;;;20.10;99.90;;;;;;5110048;28;20209;-92
2021/08/13 00:36:02;;;;;;;12.40;11.20;;;19.60;99.60;;;;;;5115783;28;20171;-92
2021/08/13 00:38:28;;;;;;;12.88;11.77;;;;;;;;;;5115080;28;20389;-91
2021/08/13 00:40:54;;;;;;;12.65;11.57;;;18.90;94.80;;;;;;5115065;28;20394;-93
2021/08/13 00:43:20;;;;;;;12.90;11.70;;;19.20;95.00;;;;;;5098239;28;20393;-92
2021/08/13 00:45:46;;;;;;;13.10;11.90;;;19.10;94.60;;;;;;5113342;28;20408;-90
2021/08/13 00:48:12;;;;;;;14.00;12.70;;;19.30;94.60;;;;;;5110726;28;20382;-91
2021/08/13 00:50:38;;;;;;;13.95;12.57;;;19.10;94.10;;;;;;5094760;28;20398;-91
2021/08/13 00:53:08;;;;;;;14.68;13.38;;;19.00;94.30;;;;;;5110813;28;20402;-90
2021/08/13 00:55:33;;;;;;;13.18;12.10;;;19.10;96.20;;;;;;5094971;28;20425;-91
2021/08/13 00:58:00;;;;;;;13.93;12.83;;;18.60;94.80;;;;;;5110640;28;20766;-91
2021/08/13 01:00:27;;;;;;;12.95;11.85;;;18.60;97.30;;;;;;5113064;28;20390;-91
2021/08/13 01:02:54;;;;;;;14.02;12.52;;;18.80;97.40;;;;;;5095267;28;20410;-92
2021/08/13 01:05:22;;;;;;;13.95;12.75;;;18.70;95.80;;;;;;5113585;28;20419;-90
2021/08/13 01:07:49;;;;;;;14.13;13.13;;;18.90;96.00;;;;;;5113012;28;20408;-91
2021/08/13 01:10:15;;;;;;;13.75;12.55;;;18.60;96.20;;;;;;5112668;28;20393;-92
2021/08/13 01:13:07;;;;;;;15.05;13.60;;;17.00;96.30;;;;;;5111864;28;20398;-91
2021/08/13 01:15:40;;;;;;;14.40;13.40;;;18.60;97.30;;;;;;5113961;28;20385;-92
2021/08/13 01:18:15;;;;;;;13.40;12.40;;;20.60;99.20;;;;;;5113437;28;20660;-92
2021/08/13 01:21:06;;;;;;;13.07;11.80;;;18.50;98.30;;;;;;5096123;28;20421;-93
2021/08/13 01:23:34;;;;;;;14.98;13.48;;;18.70;97.80;;;;;;5112251;28;20908;-92
2021/08/13 01:26:02;;;;;;;14.40;13.20;;;17.90;99.70;;;;;;5112528;28;20382;-91
2021/08/13 01:28:34;;;;;;;14.95;13.60;;;18.10;98.00;;;;;;5112435;28;20394;-91
2021/08/13 01:31:03;;;;;;;14.30;13.10;;;18.00;98.20;;;;;;5112626;28;20424;-91
2021/08/13 01:33:32;;;;;;;14.57;13.38;;;18.10;99.20;;;;;;5112465;28;20428;-91
2021/08/13 01:36:01;;;;;;;13.85;12.65;;;21.10;99.90;;;;;;5113027;28;20393;-91
2021/08/13 01:38:29;;;;;;;14.30;13.10;;;17.90;98.00;;;;;;5112860;28;20390;-91
2021/08/13 01:40:59;;;;;;;14.98;13.60;;;18.00;99.90;;;;;;5111419;28;20387;-91
2021/08/13 01:43:28;;;;;;;15.00;13.60;;;18.00;98.30;;;;;;5111778;28;20972;-92
2021/08/13 01:45:55;;;;;;;14.70;13.30;;;18.20;98.30;;;;;;5112518;28;20390;-92
2021/08/13 01:48:23;;;;;;;14.00;12.80;;;18.20;98.40;;;;;;5112619;28;20897;-91
2021/08/13 01:50:50;;;;;;;14.82;13.43;;;18.00;99.90;;;;;;5095223;28;20428;-91
2021/08/13 01:53:17;;;;;;;14.80;13.60;;;18.00;99.90;;;;;;5094504;28;20411;-91
2021/08/13 01:55:47;;;;;;;14.37;13.07;;;17.90;99.90;;;;;;5110512;28;20482;-91
2021/08/13 01:58:15;;;;;;;14.57;13.17;;;20.90;99.90;;;;;;5094335;28;20387;-91
2021/08/13 02:00:42;;;;;;;13.73;12.50;;;18.30;99.00;;;;;;5094639;28;20361;-91
2021/08/13 02:03:09;;;;;;;15.63;14.13;;;18.00;99.60;;;;;;5091694;28;20505;-90
2021/08/13 02:05:39;;;;;;;14.75;13.55;;;18.30;98.40;;;;;;5110656;28;20412;-90
2021/08/13 02:08:07;;;;;;;15.40;14.02;;;18.00;98.80;;;;;;5109909;28;20493;-91
2021/08/13 02:10:35;;;;;;;15.05;13.75;;;18.10;98.60;;;;;;5110155;28;20458;-91
2021/08/13 02:13:04;;;;;;;14.75;13.35;;;18.00;97.60;;;;;;5110032;28;20391;-91
2021/08/13 02:15:31;;;;;;;;;;;18.30;98.30;;;;;;5111573;28;20045;-91
2021/08/13 02:18:08;;;;;;;13.90;12.80;;;17.80;99.90;;;;;;5127614;28;20387;-90
2021/08/13 02:20:36;;;;;;;13.70;12.60;;;;;;;;;;5109777;28;20385;-91
2021/08/13 02:23:03;;;;;;;13.93;12.73;;;17.80;98.10;;;;;;5110222;28;20414;-91
2021/08/13 02:25:29;;;;;;;13.80;12.70;;;17.70;97.70;;;;;;5093563;28;20514;-91
2021/08/13 02:27:56;;;;;;;14.75;13.55;;;17.80;99.50;;;;;;5111493;28;20382;-92
2021/08/13 02:30:22;;;;;;;;;;;17.80;97.70;;;;;;5113454;28;20024;-92
2021/08/13 02:32:49;;;;;;;;;;;17.70;99.90;;;;;;5147319;27;19908;-91
2021/08/13 02:35:20;;;;;;;12.57;11.60;;;17.50;98.90;;;;;;5112970;28;20185;-90
2021/08/13 02:37:58;;;;;;;15.20;12.67;;;17.90;99.60;;;;;;5112721;28;20425;-92
2021/08/13 02:40:33;;;;;;;14.50;13.20;;;17.30;99.70;;;;;;5110558;28;20417;-92
2021/08/13 02:43:09;;;;;;;13.23;12.20;;;17.30;99.90;;;;;;5110677;28;20585;-90
2021/08/13 02:45:44;;;;;;;15.57;14.27;;;17.20;99.90;;;;;;5112225;28;20386;-91
2021/08/13 02:48:13;;;;;;;15.60;14.20;;;17.30;99.90;;;;;;5110199;28;20421;-91
2021/08/13 02:50:41;;;;;;;12.40;11.40;;;17.30;99.90;;;;;;5110582;28;20182;-91
2021/08/13 02:53:14;;;;;;;15.80;14.40;;;17.70;99.90;;;;;;5109628;28;20972;-91
2021/08/13 02:55:45;;;;;;;15.23;13.83;;;16.90;99.90;;;;;;5110724;28;20425;-91
2021/08/13 02:58:16;;;;;;;14.40;12.67;;;17.20;99.90;;;;;;5092573;28;20519;-91
2021/08/13 03:00:43;;;;;;;16.13;14.63;;;18.60;99.90;;;;;;5110981;28;20823;-90
2021/08/13 03:03:13;;;;;;;15.13;13.70;;;17.20;99.90;;;;;;5112178;28;20222;-91
2021/08/13 03:05:52;;;;;;;15.85;14.45;;;17.20;99.90;;;;;;5111135;28;20386;-91
2021/08/13 03:08:21;;;;;;;16.42;14.93;;;17.00;99.90;;;;;;5107831;28;20394;-91
2021/08/13 03:10:49;;;;;;;15.52;14.23;;;17.00;99.90;;;;;;5108591;28;20394;-91
2021/08/13 03:13:22;;;;;;;14.45;13.20;;;17.20;99.90;;;;;;5110114;28;20386;-91
2021/08/13 03:15:50;;;;;;;16.25;14.90;;;17.90;99.90;;;;;;5108566;28;20414;-92
2021/08/13 03:18:19;;;;;;;15.80;14.40;;;17.30;99.90;;;;;;5093297;28;20457;-91
2021/08/13 03:20:49;;;;;;;16.60;15.10;;;19.00;99.90;;;;;;5111443;28;20374;-90
2021/08/13 03:23:16;;;;;;;15.38;14.10;;;16.90;99.90;;;;;;5109499;28;20539;-91
2021/08/13 03:25:43;;;;;;;17.50;15.60;;;17.30;99.90;;;;;;5111160;28;20384;-91
2021/08/13 03:28:09;;;;;;;15.70;14.40;;;17.30;99.90;;;;;;5115498;28;20520;-89
2021/08/13 03:30:42;;;;;;;16.70;15.20;;;17.20;99.90;;;;;;5114929;28;20422;-90
2021/08/13 03:33:13;;;;;;;15.50;14.18;;;16.60;99.90;;;;;;5108212;28;20410;-91
2021/08/13 03:35:41;;;;;;;15.63;14.13;;;17.30;99.90;;;;;;5107738;28;20409;-91
2021/08/13 03:38:07;;;;;;;20.55;18.85;;;17.10;99.90;;;;;;5106762;28;20407;-91
2021/08/13 03:40:37;;;;;;;15.55;14.15;;;17.20;99.90;;;;;;5107030;28;20387;-91
2021/08/13 03:43:04;;;;;;;16.30;14.80;;;17.40;99.90;;;;;;5107461;28;20414;-91
2021/08/13 03:45:30;;;;;;;16.08;14.57;;;17.30;99.90;;;;;;5091837;28;20526;-92
2021/08/13 03:47:55;;;;;;;16.30;14.90;;;17.30;99.90;;;;;;5107555;28;20394;-91
2021/08/13 03:50:25;;;;;;;16.90;15.40;;;17.00;99.90;;;;;;5089307;28;20455;-89
2021/08/13 03:52:51;;;;;;;16.38;14.73;;;;;;;;;;5108222;28;20402;-91
2021/08/13 03:55:18;;;;;;;16.33;14.82;;;;;;;;;;5107084;28;20451;-91
2021/08/13 03:57:44;;;;;;;15.88;14.38;;;17.30;99.90;;;;;;5107132;28;20394;-91
2021/08/13 04:00:11;;;;;;;15.50;14.00;;;17.20;99.90;;;;;;5092225;28;20425;-90
2021/08/13 04:02:37;;;;;;;16.13;14.55;;;;;;;;;;5106422;28;20546;-91
2021/08/13 04:05:04;;;;;;;16.23;14.50;;;17.40;99.90;;;;;;5107922;28;20402;-90
2021/08/13 04:07:30;;;;;;;14.75;13.55;;;17.40;99.80;;;;;;5106459;28;20397;-91
2021/08/13 04:09:56;;;;;;;16.08;14.57;;;17.60;99.30;;;;;;5106810;28;20462;-91
2021/08/13 04:12:21;;;;;;;15.60;14.20;;;17.50;99.90;;;;;;5108828;28;20382;-92
2021/08/13 04:14:47;;;;;;;16.05;14.70;;;;;;;;;;5108992;28;20394;-90
2021/08/13 04:17:13;;;;;;;16.48;15.02;;;17.40;99.80;;;;;;5110145;28;20420;-90
2021/08/13 04:19:41;;;;;;;17.52;15.82;;;17.40;99.90;;;;;;5109145;28;20869;-92
2021/08/13 04:22:08;;;;;;;16.08;14.57;;;;;;;;;;5110376;28;20421;-91
2021/08/13 04:24:37;;;;;;;16.35;14.85;;;17.30;99.90;;;;;;5110856;28;20414;-92
2021/08/13 04:27:07;;;;;;;15.68;14.27;;;16.00;99.50;;;;;;5109806;28;20392;-92
2021/08/13 04:29:32;;;;;;;15.40;14.10;;;17.30;99.90;;;;;;5109609;28;20401;-92
2021/08/13 04:31:59;;;;;;;18.03;14.70;;;17.80;99.90;;;;;;5110358;28;20386;-91
2021/08/13 04:34:28;;;;;;;14.07;12.90;;;16.60;99.90;;;;;;5111009;28;20397;-91
2021/08/13 04:36:53;;;;;;;15.38;13.98;;;16.00;99.10;;;;;;5110535;28;20390;-89
2021/08/13 04:39:19;;;;;;;16.50;14.80;;;17.40;99.50;;;;;;5109638;28;20407;-90
2021/08/13 04:41:45;;;;;;;16.50;14.90;;;17.70;99.90;;;;;;5107440;28;20397;-91
2021/08/13 04:44:10;;;;;;;15.35;13.85;;;17.70;99.20;;;;;;5107132;28;20452;-92
2021/08/13 04:46:37;;;;;;;15.60;14.10;;;17.60;99.90;;;;;;5108335;28;20443;-91
2021/08/13 04:49:05;;;;;;;15.30;14.00;;;19.10;99.70;;;;;;5091428;28;20889;-91
2021/08/13 04:51:30;;;;;;;15.45;14.02;;;18.40;99.10;;;;;;5091059;28;20405;-92
2021/08/13 04:53:56;;;;;;;17.30;14.47;;;17.60;99.90;;;;;;5106483;28;20409;-91
2021/08/13 04:56:22;;;;;;;16.00;14.40;;;;;;;;;;5089713;28;20401;-91
2021/08/13 04:58:48;;;;;;;16.00;14.50;;;18.00;98.30;;;;;;5110926;28;20383;-91
2021/08/13 05:01:15;;;;;;;14.70;13.60;;;17.90;98.00;;;;;;5104163;28;20461;-91
2021/08/13 05:03:40;;;;;;;15.25;13.85;;;17.90;99.90;;;;;;5107964;28;20444;-91
2021/08/13 05:06:09;;;;;;;15.37;14.10;;;17.80;99.20;;;;;;5110801;28;20395;-92
2021/08/13 05:08:34;;;;;;;15.90;14.50;;;17.50;99.40;;;;;;5108933;28;20397;-89
2021/08/13 05:11:00;;;;;;;17.23;15.73;;;17.80;99.10;;;;;;5109511;28;20420;-91
2021/08/13 05:13:32;;;;;;;16.80;15.20;;;17.70;99.60;;;;;;5107207;28;20402;-90
2021/08/13 05:15:58;;;;;;;16.20;14.70;;;17.90;98.50;;;;;;5088232;28;20393;-91
2021/08/13 05:18:26;;;;;;;15.23;13.82;;;18.00;98.30;;;;;;5110965;28;20426;-90
2021/08/13 05:20:55;;;;;;;14.80;13.60;;;18.20;98.70;;;;;;5076176;28;20431;-91
2021/08/13 05:23:24;;;;;;;14.80;13.50;;;18.40;99.90;;;;;;5111525;28;20418;-89
2021/08/13 05:26:02;;;;;;;12.27;11.07;;;20.20;99.90;;;;;;5114680;28;20668;-91
2021/08/13 05:28:31;;;;;;;12.70;11.60;;;17.30;96.20;;;;;;5112375;28;20385;-90
2021/08/13 05:30:57;;;;;;;12.75;11.75;;;18.90;95.10;;;;;;5127387;28;20953;-91
2021/08/13 05:33:29;;;;;;;13.27;11.97;;;19.40;93.80;;;;;;5113652;28;20412;-91
2021/08/13 05:35:59;;;;;;;13.60;12.50;;;20.90;93.20;;;;;;5109454;28;20390;-91
2021/08/13 05:38:25;;;;;;;13.07;11.80;;;20.00;91.40;;;;;;5111158;28;20393;-91
2021/08/13 05:40:51;;;;;;;12.97;11.20;;;22.20;92.00;;;;;;5109389;28;20173;-91
2021/08/13 05:43:17;;;;;;;12.07;11.07;;;18.90;91.40;;;;;;5094760;28;20856;-91
2021/08/13 05:45:43;;;;;;;12.33;11.40;;;18.90;89.90;;;;;;5100765;28;20424;-89
2021/08/13 05:48:12;;;;;;;11.23;10.40;;;20.60;90.70;;;;;;5123304;28;20431;-92
2021/08/13 05:50:37;;;;;;;12.33;11.20;;;20.60;90.70;;;;;;5092916;28;20409;-90
2021/08/13 05:53:03;;;;;;;11.83;11.03;;;20.70;92.00;;;;;;5090537;28;20483;-91
2021/08/13 05:55:29;;;;;;;14.53;12.27;;;20.70;90.80;;;;;;5087464;28;20281;-90
2021/08/13 05:57:55;;;;;;;13.07;11.73;;;21.60;92.30;;;;;;5089171;28;20463;-90
2021/08/13 06:00:23;;;;;;;13.17;11.87;;;20.60;88.20;;;;;;5091077;28;20492;-91
2021/08/13 06:02:58;;;;;;;17.30;13.30;;;21.00;92.10;;;;;;5090478;28;20236;-91
2021/08/13 06:05:25;;;;;;;13.83;12.53;;;20.80;90.10;;;;;;5092005;28;20522;-91
2021/08/13 06:07:52;;;;;;;11.80;10.70;;;21.70;90.10;;;;;;5091992;28;20397;-91
2021/08/13 06:10:21;;;;;;;23.17;21.23;;;21.10;86.00;;;;;;5093727;28;20518;-90
2021/08/13 06:12:49;;;;;;;12.07;11.17;;;22.60;86.10;;;;;;5104736;28;20420;-91
2021/08/13 06:15:16;;;;;;;12.47;11.27;;;22.90;86.10;;;;;;5111638;28;20458;-92
2021/08/13 06:17:44;;;;;;;11.83;10.30;;;25.60;81.70;;;;;;5114061;28;20400;-91
2021/08/13 06:20:11;;;;;;;13.47;12.37;;;23.80;77.60;;;;;;5114309;28;20412;-89
2021/08/13 06:22:39;;;;;;;10.17;9.53;;;24.90;74.40;;;;;;5112326;28;20559;-92
2021/08/13 06:25:06;;;;;;;13.37;9.40;;;24.90;75.50;;;;;;5111568;28;20851;-90
2021/08/13 06:27:32;;;;;;;11.93;11.03;;;24.90;71.40;;;;;;5113894;28;20440;-92
2021/08/13 06:29:59;;;;;;;10.60;9.80;;;24.40;68.20;;;;;;5110110;28;20577;-91
2021/08/13 06:32:25;;;;;;;10.83;10.03;;;25.00;73.30;;;;;;5114246;28;20416;-92
2021/08/13 06:38:03;;;;;;;12.50;11.40;;;23.70;69.70;;;;;;5070793;28;20207;-89
2021/08/13 06:41:12;;;;;;;12.13;11.20;;;23.50;71.10;;;;;;5074656;28;20440;-90
2021/08/13 06:44:06;;;;;;;12.97;11.47;;;23.10;72.80;;;;;;5057215;28;20469;-90
2021/08/13 06:46:33;;;;;;;12.63;11.37;;;23.90;75.80;;;;;;5071390;28;20949;-90
2021/08/13 06:49:00;;;;;;;12.93;11.93;;;23.30;78.70;;;;;;5068320;28;20484;-87
2021/08/13 06:51:27;;;;;;;12.37;11.30;;;24.60;77.20;;;;;;5070892;28;20401;-90
2021/08/13 06:53:55;;;;;;;15.00;10.90;;;23.90;73.70;;;;;;5067879;28;20417;-91
2021/08/13 06:56:23;;;;;;;15.37;11.53;;;25.40;74.40;;;;;;5069869;28;20405;-90
2021/08/13 06:58:51;;;;;;;11.60;10.40;;;25.50;73.80;;;;;;5069025;28;20418;-90
2021/08/13 07:01:17;;;;;;;13.93;10.53;;;25.80;73.60;;;;;;5057044;28;20425;-90
2021/08/13 07:03:43;;;;;;;12.07;10.87;;;26.20;73.60;;;;;;5064197;28;20936;-90
2021/08/13 07:06:11;;;;;;;12.30;11.30;;;24.90;71.00;;;;;;5070439;28;20187;-89
2021/08/13 07:08:38;;;;;;;13.23;12.00;;;25.40;72.00;;;;;;5074654;28;20174;-89
2021/08/13 07:11:04;;;;;;;11.40;10.23;;;26.90;72.40;;;;;;5067419;28;20410;-91
2021/08/13 07:13:30;;;;;;;12.27;11.17;;;24.60;69.60;;;;;;5062599;28;20175;-89
2021/08/13 07:15:55;;;;;;;12.80;11.77;;;25.20;67.60;;;;;;5064023;28;20179;-87
2021/08/13 07:18:23;;;;;;;13.97;12.47;;;22.70;64.70;;;;;;5061906;28;20503;-89
2021/08/13 07:20:49;;;;;;;11.77;10.73;;;24.70;72.30;;;;;;5063240;28;20159;-89
2021/08/13 07:23:15;;;;;;;13.30;12.10;;;24.90;67.60;;;;;;5063060;28;20967;-89
2021/08/13 07:25:40;;;;;;;12.87;11.77;;;25.60;68.40;;;;;;5064205;28;20684;-89
2021/08/13 07:28:06;;;;;;;13.23;12.10;;;26.20;70.30;;;;;;5058915;28;20194;-89
2021/08/13 07:30:31;;;;;;;12.43;11.00;;;26.50;70.00;;;;;;5060499;28;20198;-86
2021/08/13 07:32:57;;;;;;;13.07;11.97;;;24.70;66.50;;;;;;5060878;28;20524;-87
2021/08/13 07:35:23;;;;;;;13.83;12.63;;;24.80;65.70;;;;;;5059593;28;20171;-89
2021/08/13 07:37:48;;;;;;;12.40;11.50;;;25.10;65.40;;;;;;5055541;28;20736;-88
2021/08/13 07:40:14;;;;;;;15.00;13.07;;;24.50;61.40;;;;;;5057962;28;20171;-88
2021/08/13 07:42:41;;;;;;;14.30;13.07;;;26.00;60.30;;;;;;4706948;28;10000487;-87
2021/08/13 07:45:07;;;;;;;12.90;11.80;;;25.60;60.60;;;;;;5054627;28;20647;-89
2021/08/13 07:47:33;;;;;;;12.90;11.83;;;26.30;59.60;;;;;;5052602;28;20988;-87
2021/08/13 07:49:59;;;;;;;13.43;11.83;;;28.30;62.70;;;;;;5056566;28;20441;-87
2021/08/13 07:52:24;;;;;;;14.10;12.93;;;25.60;59.40;;;;;;5057445;28;20250;-88
2021/08/13 07:54:54;;;;;;;13.90;12.80;;;27.10;58.60;;;;;;5067044;28;20231;-88
2021/08/13 07:57:22;;;;;;;15.20;13.70;;;25.60;57.00;;;;;;5052465;28;20430;-91
2021/08/13 07:59:49;;;;;;;15.00;13.70;;;27.10;58.60;;;;;;5066145;28;20421;-89
2021/08/13 08:02:15;;;;;;;17.37;15.57;;;26.90;58.50;;;;;;5058690;28;20417;-88
2021/08/13 08:04:41;;;;;;;17.20;15.60;;;26.50;58.90;;;;;;5056636;28;20488;-87
2021/08/13 08:07:06;;;;;;;17.97;16.37;;;26.60;59.20;;;;;;5055979;28;20178;-87
2021/08/13 08:09:32;;;;;;;15.33;13.87;;;26.40;59.20;;;;;;5057052;28;20175;-90
2021/08/13 08:11:58;;;;;;;17.97;16.47;;;26.40;59.60;;;;;;5056438;28;20171;-89
2021/08/13 08:14:23;;;;;;;17.97;15.83;;;26.80;61.70;;;;;;5056178;28;20273;-90
2021/08/13 08:16:49;;;;;;;18.30;15.97;;;26.40;59.30;;;;;;5058651;28;20175;-89
2021/08/13 08:19:14;;;;;;;21.37;17.97;;;26.50;59.40;;;;;;5058635;28;20631;-88
2021/08/13 08:21:42;;;;;;;21.43;19.40;;;26.50;58.70;;;;;;5057197;28;20665;-88
2021/08/13 08:24:08;;;;;;;19.43;17.53;;;26.30;58.70;;;;;;5057641;28;20658;-91
2021/08/13 08:26:34;;;;;;;21.83;19.40;;;26.40;58.10;;;;;;5055696;28;20421;-90
2021/08/13 08:29:00;;;;;;;21.27;19.20;;;28.40;60.50;;;;;;5056622;28;20228;-90
2021/08/13 08:31:26;;;;;;;20.03;18.23;;;26.70;58.30;;;;;;5054954;28;20178;-89
2021/08/13 08:33:51;;;;;;;19.67;17.57;;;28.80;61.70;;;;;;5056116;28;20409;-87
2021/08/13 08:36:17;;;;;;;20.73;18.70;;;28.40;57.40;;;;;;5057118;28;20246;-86
2021/08/13 08:38:42;;;;;;;21.10;19.07;;;29.00;57.20;;;;;;5057696;28;20167;-88
2021/08/13 08:41:09;;;;;;;19.70;17.90;;;29.40;56.50;;;;;;5054595;28;20265;-88
2021/08/13 08:43:35;;;;;;;22.13;19.77;;;29.20;53.70;;;;;;5053603;28;20215;-88
2021/08/13 08:46:03;;;;;;;20.50;18.70;;;31.10;54.80;;;;;;5049613;28;20432;-90
2021/08/13 08:48:36;;;;;;;25.10;20.40;;;29.60;53.50;;;;;;5047479;28;20437;-85
2021/08/13 08:51:04;;;;;;;23.00;20.80;;;29.70;53.10;;;;;;5054554;28;20465;-87
2021/08/13 08:53:31;;;;;;;22.70;20.70;;;29.20;53.70;;;;;;5051297;28;20421;-87
2021/08/13 08:55:57;;;;;;;22.80;20.70;;;29.20;53.20;;;;;;5054045;28;20514;-88
2021/08/13 08:58:24;;;;;;;23.30;21.10;;;30.00;54.40;;;;;;5059762;28;20997;-89
2021/08/13 09:00:50;;;;;;;23.10;21.07;;;30.50;52.90;;;;;;5061067;28;20421;-89
2021/08/13 09:03:20;;;;;;;25.93;23.40;;;29.70;55.70;;;;;;5060222;28;20480;-91
2021/08/13 09:05:49;;;;;;;25.87;23.27;;;28.80;52.30;;;;;;5059147;28;20493;-87
2021/08/13 09:08:14;;;;;;;22.53;20.67;;;29.60;52.00;;;;;;5062553;28;20418;-83
2021/08/13 09:10:41;;;;;;;25.27;22.57;;;29.90;51.90;;;;;;5062129;28;20456;-89
2021/08/13 09:13:10;;;;;;;27.10;24.60;;;30.80;53.40;;;;;;5056321;28;20182;-86
2021/08/13 09:15:41;;;;;;;27.27;24.57;;;31.30;49.10;;;;;;5059905;28;20452;-90
2021/08/13 09:18:20;;;;;;;27.07;24.43;;;31.60;49.00;;;;;;5059342;28;20437;-88
2021/08/13 09:20:57;;;;;;;27.77;25.10;;;31.20;48.70;;;;;;5050998;28;20428;-90
2021/08/13 09:23:41;;;;;;;31.07;27.87;;;31.10;49.30;;;;;;5061891;28;20461;-88
2021/08/13 09:26:13;;;;;;;29.27;26.37;;;30.70;49.80;;;;;;5060442;28;20429;-89
2021/08/13 09:28:43;;;;;;;26.00;23.57;;;31.00;49.10;;;;;;5060823;28;20447;-88
2021/08/13 09:31:27;;;;;;;27.80;25.10;;;31.10;48.90;;;;;;5060393;28;20429;-86
2021/08/13 09:33:55;;;;;;;28.17;25.47;;;31.30;48.00;;;;;;5059765;28;20441;-91
2021/08/13 09:36:23;;;;;;;25.97;23.63;;;32.80;48.90;;;;;;5061102;28;20825;-87
2021/08/13 09:39:02;;;;;;;28.43;25.63;;;32.00;47.80;;;;;;5061158;28;20417;-89
2021/08/13 09:41:28;;;;;;;30.57;27.67;;;32.00;48.10;;;;;;5059859;28;20465;-87
2021/08/13 09:44:01;;;;;;;30.73;26.93;;;33.30;48.20;;;;;;5061859;28;20516;-90
2021/08/13 09:46:30;;;;;;;29.60;26.90;;;32.40;47.80;;;;;;5059729;28;20179;-89
2021/08/13 09:49:17;;;;;;;26.40;23.93;;;32.80;46.80;;;;;;5034009;28;20445;-86
2021/08/13 09:51:44;;;;;;;27.03;24.43;;;;;;;;;;5038380;28;20414;-90
2021/08/13 09:54:15;;;;;;;25.73;23.30;;;33.40;45.00;;;;;;5046788;28;20935;-91
2021/08/13 09:56:44;;;;;;;22.50;20.40;;;33.70;45.50;;;;;;5057020;28;20929;-90
2021/08/13 09:59:20;;;;;;;22.30;20.20;;;33.90;44.40;;;;;;5062884;28;20429;-91
2021/08/13 10:01:47;;;;;;;18.70;17.00;;;32.50;44.00;;;;;;5060474;28;20409;-89
2021/08/13 10:04:16;;;;;;;22.93;19.70;;;33.00;44.80;;;;;;5058569;28;20473;-87
2021/08/13 10:06:44;;;;;;;18.97;17.07;;;32.50;44.60;;;;;;5064750;28;20449;-91
2021/08/13 10:09:29;;;;;;;20.17;18.47;;;32.40;44.00;;;;;;5062509;28;20475;-88
2021/08/13 10:11:57;;;;;;;20.87;19.07;;;31.90;44.00;;;;;;5063190;28;20493;-91
2021/08/13 10:14:33;;;;;;;18.73;17.10;;;31.80;45.80;;;;;;5062393;28;20414;-90
2021/08/13 10:17:14;;;;;;;20.30;18.60;;;32.70;44.90;;;;;;5060283;28;20849;-87
2021/08/13 10:19:44;;;;;;;17.73;16.20;;;33.20;43.50;;;;;;5062050;28;20761;-89
2021/08/13 10:22:15;;;;;;;12.90;12.00;;;35.00;45.30;;;;;;5057172;28;20735;-92
2021/08/13 10:24:44;;;;;;;11.50;10.53;;;33.00;42.30;;;;;;5060502;28;20469;-90
2021/08/13 10:27:11;;;;;;;9.47;8.77;;;32.70;43.00;;;;;;5060855;28;20432;-88
2021/08/13 10:29:37;;;;;;;10.07;9.17;;;32.10;41.90;;;;;;5061191;28;20434;-85
2021/08/13 10:32:06;;;;;;;9.77;8.90;;;32.90;43.00;;;;;;5062582;28;20437;-91
2021/08/13 10:34:34;;;;;;;11.33;7.83;;;;;;;;;;5063004;28;20670;-90
2021/08/13 10:37:10;;;;;;;10.57;9.57;;;32.90;42.90;;;;;;5063831;28;20515;-90
2021/08/13 10:39:41;;;;;;;10.23;9.53;;;34.50;42.40;;;;;;5050110;28;20450;-91
2021/08/13 10:42:16;;;;;;;10.93;10.03;;;33.30;41.90;;;;;;5042783;28;20407;-90
2021/08/13 10:44:58;;;;;;;9.87;9.27;;;34.00;42.40;;;;;;5056366;28;20581;-88
2021/08/13 10:47:31;;;;;;;9.87;9.07;;;35.00;43.20;;;;;;5049493;28;20450;-90
2021/08/13 10:49:57;;;;;;;8.60;8.20;;;34.50;42.80;;;;;;5040940;28;20406;-87
2021/08/13 10:52:34;;;;;;;8.20;7.70;;;33.10;42.40;;;;;;5057276;28;20418;-89
2021/08/13 10:55:03;;;;;;;7.43;6.93;;;33.60;41.30;;;;;;5056236;28;20536;-90
2021/08/13 10:57:47;;;;;;;7.90;7.40;;;31.90;43.10;;;;;;5057007;28;20460;-88
2021/08/13 11:00:14;;;;;;;6.37;5.93;;;31.50;42.70;;;;;;5060896;28;20446;-87
2021/08/13 11:02:40;;;;;;;4.80;4.67;;;31.30;42.90;;;;;;5056041;28;20470;-87
2021/08/13 11:05:06;;;;;;;7.83;7.20;;;33.80;42.80;;;;;;5059482;28;20481;-85
2021/08/13 11:08:00;;;;;;;5.93;5.53;;;31.50;42.10;;;;;;5059748;28;20175;-84
2021/08/13 11:10:41;;;;;;;6.43;6.10;;;32.10;41.30;;;;;;5061012;28;20420;-84
2021/08/13 11:13:35;;;;;;;10.60;7.70;;;32.30;42.00;;;;;;5059275;28;20524;-90
2021/08/13 11:16:01;;;;;;;12.73;11.83;;;33.00;41.70;;;;;;5017001;28;20775;-87
2021/08/13 11:18:35;;;;;;;7.47;6.87;;;33.00;41.40;;;;;;5059106;28;20413;-90
2021/08/13 11:21:09;;;;;;;5.80;5.60;;;33.00;41.60;;;;;;5057816;28;20182;-89
2021/08/13 11:23:58;;;;;;;4.80;4.60;;;32.60;40.90;;;;;;5050221;28;20521;-87
2021/08/13 11:26:56;;;;;;;4.60;4.50;;;32.90;40.40;;;;;;5057863;28;20933;-89
2021/08/13 11:29:31;;;;;;;4.87;4.57;;;33.10;39.80;;;;;;5058861;28;20410;-93
2021/08/13 11:31:58;;;;;;;5.60;5.30;;;33.50;39.20;;;;;;5053404;28;21008;-87
2021/08/13 11:34:46;;;;;;;4.73;4.33;;;33.60;40.40;;;;;;5038901;28;20960;-89
2021/08/13 11:37:30;;;;;;;5.20;4.90;;;32.70;39.40;;;;;;5049589;28;20975;-90
2021/08/13 11:39:58;;;;;;;5.60;5.40;;;33.60;40.30;;;;;;5077195;28;20457;-86
2021/08/13 11:42:46;;;;;;;4.10;3.93;;;33.50;39.90;;;;;;5077532;28;20416;-90
2021/08/13 11:45:15;;;;;;;4.07;3.90;;;33.90;39.40;;;;;;5080579;28;20432;-91
2021/08/13 11:47:48;;;;;;;5.03;4.57;;;36.00;41.90;;;;;;5075201;28;20417;-87
2021/08/13 11:50:17;;;;;;;3.97;3.83;;;33.30;39.60;;;;;;5079570;28;20504;-89
2021/08/13 11:52:51;;;;;;;4.00;3.90;;;32.70;40.20;;;;;;5073882;28;20413;-88
2021/08/13 11:55:27;;;;;;;3.67;3.57;;;33.10;41.60;;;;;;5077331;28;20412;-90
2021/08/13 11:58:02;;;;;;;4.17;4.07;;;33.70;43.00;;;;;;5078887;28;20824;-91
2021/08/13 12:00:33;;;;;;;3.93;3.50;;;32.70;42.60;;;;;;5076175;28;20409;-87
2021/08/13 12:02:59;;;;;;;3.63;3.50;;;33.50;42.40;;;;;;5080047;28;20444;-92
2021/08/13 12:05:36;;;;;;;3.20;3.10;;;33.10;42.20;;;;;;5077968;28;20463;-87
2021/08/13 12:08:13;;;;;;;3.20;3.20;;;31.60;39.20;;;;;;5077818;28;20170;-90
2021/08/13 12:10:46;;;;;;;2.83;2.80;;;33.20;40.60;;;;;;5065549;28;20911;-91
2021/08/13 12:13:11;;;;;;;2.90;2.90;;;32.00;40.70;;;;;;5083480;28;20432;-89
2021/08/13 12:15:39;;;;;;;3.63;3.53;;;31.60;43.00;;;;;;5080831;28;20417;-88
2021/08/13 12:18:08;;;;;;;3.70;3.40;;;31.80;42.40;;;;;;5079382;28;20226;-90
2021/08/13 12:20:35;;;;;;;4.70;4.30;;;32.50;41.60;;;;;;5077258;28;20425;-88
2021/08/13 12:23:06;;;;;;;3.93;3.60;;;32.70;41.90;;;;;;5079699;28;20514;-92
2021/08/13 12:25:37;;;;;;;3.23;3.10;;;31.70;43.30;;;;;;5078029;28;20505;-87
2021/08/13 12:28:05;;;;;;;3.30;3.30;;;31.20;43.50;;;;;;5080468;28;20511;-90
2021/08/13 12:30:33;;;;;;;3.50;3.40;;;30.90;43.90;;;;;;5080201;28;20495;-90
2021/08/13 12:33:00;;;;;;;2.87;2.87;;;33.00;41.80;;;;;;5080482;28;20405;-89
2021/08/13 12:35:41;;;;;;;3.60;3.50;;;33.10;41.80;;;;;;5082326;28;20412;-90
2021/08/13 12:38:10;;;;;;;3.40;3.30;;;32.10;41.00;;;;;;5081959;28;20478;-89
2021/08/13 12:40:51;;;;;;;2.60;2.50;;;32.20;41.90;;;;;;5081383;28;20417;-91
2021/08/13 12:43:18;;;;;;;2.97;2.47;;;32.40;41.00;;;;;;5083863;28;20462;-91
2021/08/13 12:45:47;;;;;;;2.77;2.77;;;30.80;41.40;;;;;;5081285;28;20508;-93
2021/08/13 12:48:20;;;;;;;2.60;2.50;;;30.80;41.50;;;;;;5088027;28;20741;-93
2021/08/13 12:50:46;;;;;;;2.90;2.90;;;30.40;41.40;;;;;;5055500;28;20472;-86